Time;durP1;ratioP1;P1;durP2;ratioP2;P2;SDS_P1;SDS_P2;PMS_P1;PMS_P2;Temp;Humidity;BMP_temperature;BMP_pressure;BME280_temperature;BME280_humidity;BME280_pressure;Samples;Min_cycle;Max_cycle;Signal;HPM_P1;HPM_P2
2022/07/07 00:00:00;;;;;;;10.70;4.40;;;;;;;18.21;100.00;101735.47;5054052;28;20056;-77
2022/07/07 00:02:29;;;;;;;8.38;4.55;;;;;;;18.25;100.00;101727.72;5055453;28;20366;-77
2022/07/07 00:04:55;;;;;;;8.85;4.25;;;;;;;18.15;100.00;101725.84;5037437;28;20032;-76
2022/07/07 00:07:21;;;;;;;7.32;4.30;;;;;;;18.20;100.00;101711.56;5053959;28;20036;-76
2022/07/07 00:09:46;;;;;;;12.45;5.22;;;;;;;18.16;100.00;101707.31;5053576;28;20040;-76
2022/07/07 00:12:13;;;;;;;9.77;5.22;;;;;;;18.12;100.00;101709.53;5055672;28;20511;-76
2022/07/07 00:14:38;;;;;;;8.98;5.13;;;;;;;18.12;100.00;101703.97;5055352;28;20028;-76
2022/07/07 00:17:04;;;;;;;10.13;5.40;;;;;;;18.13;100.00;101704.84;5037408;28;20029;-77
2022/07/07 00:19:30;;;;;;;8.60;4.80;;;;;;;18.15;100.00;101703.69;5054952;28;20041;-77
2022/07/07 00:21:56;;;;;;;9.95;5.15;;;;;;;18.17;100.00;101687.78;5036987;28;20028;-77
2022/07/07 00:24:21;;;;;;;9.98;5.18;;;;;;;18.09;100.00;101689.56;5053557;28;20202;-77
2022/07/07 00:26:50;;;;;;;9.98;5.22;;;;;;;18.07;100.00;101688.81;5053612;28;20040;-76
2022/07/07 00:29:16;;;;;;;7.05;4.45;;;;;;;18.08;100.00;101679.47;5053209;28;20071;-78
2022/07/07 00:31:41;;;;;;;7.97;5.03;;;;;;;18.10;100.00;101680.19;5052377;28;20033;-77
2022/07/07 00:34:06;;;;;;;9.95;5.47;;;;;;;18.15;100.00;101672.28;5036502;28;20045;-77
2022/07/07 00:36:32;;;;;;;11.05;5.18;;;;;;;18.16;100.00;101672.16;5053311;28;20484;-77
2022/07/07 00:38:58;;;;;;;12.00;5.80;;;;;;;18.18;100.00;101672.91;5053041;28;20040;-77
2022/07/07 00:41:24;;;;;;;9.40;5.35;;;;;;;18.12;100.00;101661.53;5053479;28;20045;-79
2022/07/07 00:43:49;;;;;;;8.65;5.43;;;;;;;18.01;100.00;101665.34;5054362;28;20064;-77
2022/07/07 00:46:15;;;;;;;8.32;5.18;;;;;;;18.11;100.00;101652.34;5053045;28;20029;-76
2022/07/07 00:48:41;;;;;;;13.10;5.90;;;;;;;17.99;100.00;101646.09;5036969;28;20365;-76
2022/07/07 00:51:10;;;;;;;10.00;5.38;;;;;;;18.12;100.00;101648.53;5054824;28;20037;-76
2022/07/07 00:53:36;;;;;;;12.95;5.20;;;;;;;18.07;100.00;101650.00;5053064;28;20139;-76
2022/07/07 00:56:02;;;;;;;14.00;6.18;;;;;;;18.12;100.00;101636.59;5053171;28;20101;-76
2022/07/07 00:58:28;;;;;;;8.65;5.82;;;;;;;18.07;100.00;101639.81;5052884;28;20154;-77
2022/07/07 01:00:54;;;;;;;11.15;5.53;;;;;;;18.17;100.00;101634.25;5053927;28;20036;-76
2022/07/07 01:03:20;;;;;;;12.65;5.80;;;;;;;18.08;100.00;101632.38;5036768;28;20041;-77
2022/07/07 01:05:47;;;;;;;10.18;5.32;;;;;;;18.05;100.00;101633.53;5052843;28;20032;-77
2022/07/07 01:08:15;;;;;;;10.65;5.47;;;;;;;18.06;100.00;101629.75;5036175;28;20036;-77
2022/07/07 01:10:45;;;;;;;12.90;6.20;;;;;;;18.11;100.00;101632.94;5053098;28;20048;-78
2022/07/07 01:13:12;;;;;;;15.15;6.70;;;;;;;17.98;100.00;101630.50;5054254;28;20033;-77
2022/07/07 01:15:37;;;;;;;16.63;6.38;;;;;;;18.05;100.00;101627.97;5036647;28;20099;-77
2022/07/07 01:18:04;;;;;;;10.15;5.13;;;;;;;18.06;100.00;101632.50;5052565;28;20029;-77
2022/07/07 01:20:30;;;;;;;15.10;6.13;;;;;;;18.16;100.00;101627.78;5052980;28;20484;-77
2022/07/07 01:22:56;;;;;;;11.10;5.45;;;;;;;18.25;100.00;101627.91;5019710;28;20033;-77
2022/07/07 01:25:23;;;;;;;9.38;5.35;;;;;;;18.24;100.00;101623.41;5053277;28;20037;-78
2022/07/07 01:27:49;;;;;;;12.23;5.38;;;;;;;18.30;100.00;101633.84;5019924;28;20025;-77
2022/07/07 01:30:16;;;;;;;13.70;5.80;;;;;;;18.26;100.00;101621.34;5052633;28;20040;-77
2022/07/07 01:32:42;;;;;;;9.02;5.05;;;;;;;18.26;100.00;101622.22;5053446;28;20099;-77
2022/07/07 01:35:10;;;;;;;13.85;5.30;;;;;;;18.27;100.00;101618.44;5053793;28;20041;-76
2022/07/07 01:37:35;;;;;;;8.15;5.00;;;;;;;18.34;100.00;101613.13;5035782;28;20523;-77
2022/07/07 01:40:03;;;;;;;10.75;5.28;;;;;;;18.38;100.00;101611.78;5053508;28;20033;-77
2022/07/07 01:42:29;;;;;;;8.20;4.68;;;;;;;18.43;100.00;101605.78;5055619;28;20029;-77
2022/07/07 01:44:54;;;;;;;8.95;4.95;;;;;;;18.43;100.00;101600.25;5042758;28;20503;-77
2022/07/07 01:47:21;;;;;;;13.68;5.10;;;;;;;18.53;100.00;101598.31;5059204;28;20033;-77
2022/07/07 01:49:47;;;;;;;14.30;4.97;;;;;;;18.44;100.00;101597.31;5042244;28;20029;-77
2022/07/07 01:52:13;;;;;;;10.68;4.90;;;;;;;18.48;100.00;101598.75;5060448;28;20048;-77
2022/07/07 01:54:39;;;;;;;13.65;4.72;;;;;;;18.38;100.00;101600.69;5059136;28;20044;-77
2022/07/07 01:57:06;;;;;;;14.50;5.28;;;;;;;18.51;100.00;101598.47;5060672;28;20037;-77
2022/07/07 01:59:33;;;;;;;11.43;4.90;;;;;;;18.60;100.00;101595.78;5059030;28;20036;-77
2022/07/07 02:01:58;;;;;;;12.93;5.32;;;;;;;18.46;100.00;101586.06;5060562;28;20033;-77
2022/07/07 02:04:23;;;;;;;16.70;4.88;;;;;;;18.48;100.00;101595.09;5060568;28;20035;-77
2022/07/07 02:06:49;;;;;;;15.75;5.25;;;;;;;18.50;100.00;101596.69;5041606;28;20476;-77
2022/07/07 02:09:15;;;;;;;13.40;4.65;;;;;;;18.49;100.00;101597.72;5046129;28;20121;-76
2022/07/07 02:11:40;;;;;;;8.70;4.20;;;;;;;18.52;100.00;101597.41;5040917;28;20083;-77
2022/07/07 02:14:06;;;;;;;14.25;4.70;;;;;;;18.54;100.00;101602.81;5055847;28;20037;-76
2022/07/07 02:16:33;;;;;;;10.93;5.32;;;;;;;18.56;100.00;101595.19;5022907;28;20033;-78
2022/07/07 02:19:00;;;;;;;15.75;5.13;;;;;;;18.52;100.00;101591.84;5055784;28;20051;-77
2022/07/07 02:21:26;;;;;;;10.77;5.40;;;;;;;18.51;100.00;101592.00;5040725;28;20358;-77
2022/07/07 02:23:54;;;;;;;12.15;5.38;;;;;;;18.49;100.00;101588.53;5039155;28;20039;-78
2022/07/07 02:26:20;;;;;;;9.45;4.93;;;;;;;18.60;100.00;101590.22;5040373;28;20481;-77
2022/07/07 02:28:46;;;;;;;8.02;5.07;;;;;;;18.56;100.00;101595.19;5040340;28;20113;-76
2022/07/07 02:31:12;;;;;;;6.22;4.32;;;;;;;18.49;100.00;101592.16;5022814;28;20170;-77
2022/07/07 02:33:41;;;;;;;14.80;5.15;;;;;;;18.60;100.00;101590.22;5022477;28;20053;-77
2022/07/07 02:36:07;;;;;;;7.03;4.57;;;;;;;18.78;100.00;101587.47;5039238;28;20029;-77
2022/07/07 02:38:33;;;;;;;13.13;4.82;;;;;;;18.58;100.00;101590.38;5040327;28;20508;-77
2022/07/07 02:40:59;;;;;;;10.82;4.70;;;;;;;18.55;100.00;101582.38;5039196;28;20037;-77
2022/07/07 02:43:25;;;;;;;9.65;5.07;;;;;;;18.43;100.00;101575.28;5055678;28;20064;-77
2022/07/07 02:45:52;;;;;;;14.30;5.50;;;;;;;18.51;100.00;101580.91;5040144;28;20055;-76
2022/07/07 02:48:20;;;;;;;15.57;5.57;;;;;;;18.42;100.00;101582.75;5038863;28;20044;-77
2022/07/07 02:50:46;;;;;;;15.57;6.03;;;;;;;18.43;100.00;101583.59;5040504;28;20091;-77
2022/07/07 02:53:12;;;;;;;13.80;5.50;;;;;;;18.43;100.00;101578.94;5054504;28;20033;-77
2022/07/07 02:55:39;;;;;;;13.27;5.20;;;;;;;18.37;100.00;101577.66;5037035;28;20035;-78
2022/07/07 02:58:07;;;;;;;14.02;5.20;;;;;;;18.37;100.00;101580.41;5036730;28;20092;-76
2022/07/07 03:00:33;;;;;;;8.43;4.80;;;;;;;18.40;100.00;101578.34;5037257;28;20546;-77
2022/07/07 03:03:03;;;;;;;9.18;5.50;;;;;;;18.42;100.00;101577.19;5035983;28;20033;-76
2022/07/07 03:05:29;;;;;;;10.52;4.78;;;;;;;18.42;100.00;101582.75;5035872;28;20400;-77
2022/07/07 03:07:55;;;;;;;11.77;4.82;;;;;;;18.45;100.00;101578.78;5038598;28;20029;-77
2022/07/07 03:10:21;;;;;;;10.85;4.93;;;;;;;18.39;100.00;101574.72;5055504;28;20041;-77
2022/07/07 03:12:47;;;;;;;9.27;4.72;;;;;;;18.42;100.00;101581.88;5056843;28;20029;-77
2022/07/07 03:15:13;;;;;;;10.70;4.75;;;;;;;18.46;100.00;101578.63;5056915;28;20051;-77
2022/07/07 03:17:43;;;;;;;11.18;4.53;;;;;;;18.40;100.00;101562.63;5055310;28;20102;-77
2022/07/07 03:20:13;;;;;;;7.88;4.50;;;;;;;18.35;100.00;101568.63;5022577;28;20028;-76
2022/07/07 03:22:39;;;;;;;9.32;4.32;;;;;;;18.44;100.00;101565.94;5056690;28;20524;-77
2022/07/07 03:25:06;;;;;;;9.88;4.32;;;;;;;18.35;100.00;101568.63;5056276;28;20021;-78
2022/07/07 03:27:33;;;;;;;9.60;4.45;;;;;;;18.37;100.00;101558.25;5055248;28;20041;-77
2022/07/07 03:29:58;;;;;;;11.18;4.38;;;;;;;18.38;100.00;101564.66;5022397;28;20170;-77
2022/07/07 03:32:24;;;;;;;8.35;4.47;;;;;;;18.38;100.00;101556.31;5054945;28;20076;-76
2022/07/07 03:34:49;;;;;;;11.57;4.40;;;;;;;18.51;100.00;101559.63;5038604;28;20104;-76
2022/07/07 03:37:15;;;;;;;9.55;4.70;;;;;;;18.38;100.00;101556.31;5038313;28;20115;-78
2022/07/07 03:39:40;;;;;;;13.00;5.25;;;;;;;18.39;100.00;101558.09;5054765;28;20120;-77
2022/07/07 03:42:06;;;;;;;18.20;5.70;;;;;;;18.39;100.00;101568.31;5021921;28;20037;-77
2022/07/07 03:44:31;;;;;;;17.15;5.50;;;;;;;18.28;100.00;101569.38;5055764;28;20033;-78
2022/07/07 03:46:57;;;;;;;8.45;5.28;;;;;;;18.06;100.00;101556.81;5054596;28;20064;-77
2022/07/07 03:49:22;;;;;;;10.80;5.28;;;;;;;17.91;100.00;101573.94;5054686;28;20037;-78
2022/07/07 03:51:48;;;;;;;16.70;5.50;;;;;;;17.73;100.00;101565.53;5038285;28;20041;-77
2022/07/07 03:54:14;;;;;;;16.23;6.25;;;;;;;17.58;100.00;101569.81;5054863;28;20439;-77
2022/07/07 03:56:40;;;;;;;10.25;4.53;;;;;;;17.42;100.00;101576.81;5055954;28;20048;-77
2022/07/07 03:59:05;;;;;;;11.35;5.22;;;;;;;17.32;100.00;101577.88;5021269;28;20392;-76
2022/07/07 04:01:31;;;;;;;10.15;4.18;;;;;;;17.27;100.00;101581.94;5055587;28;20033;-76
2022/07/07 04:03:57;;;;;;;11.63;4.30;;;;;;;17.23;100.00;101587.91;5021318;28;20028;-76
2022/07/07 04:06:22;;;;;;;9.32;3.45;;;;;;;17.19;100.00;101597.53;5037773;28;20040;-76
2022/07/07 04:08:49;;;;;;;12.80;3.72;;;;;;;17.09;100.00;101601.19;5037866;28;20040;-76
2022/07/07 04:11:15;;;;;;;7.78;3.63;;;;;;;17.00;100.00;101582.69;5054298;28;20037;-77
2022/07/07 04:13:41;;;;;;;4.82;3.30;;;;;;;16.95;100.00;101590.53;5055929;28;20476;-76
2022/07/07 04:16:07;;;;;;;9.18;3.60;;;;;;;16.95;100.00;101573.94;5054049;28;20044;-76
2022/07/07 04:18:34;;;;;;;4.38;3.70;;;;;;;16.94;100.00;101574.09;5037719;28;20040;-77
2022/07/07 04:20:59;;;;;;;10.93;4.28;;;;;;;16.95;100.00;101578.63;5054405;28;20090;-78
2022/07/07 04:23:25;;;;;;;9.18;4.40;;;;;;;16.98;100.00;101575.56;5054959;28;20107;-77
2022/07/07 04:25:53;;;;;;;12.35;3.97;;;;;;;16.94;100.00;101579.63;5053927;28;20044;-77
2022/07/07 04:28:19;;;;;;;9.95;4.43;;;;;;;16.88;100.00;101570.88;5053888;28;20074;-76
2022/07/07 04:30:45;;;;;;;8.65;4.90;;;;;;;16.90;100.00;101581.81;5053906;28;20063;-77
2022/07/07 04:33:12;;;;;;;6.88;4.32;;;;;;;16.90;100.00;101579.03;5053614;28;20045;-76
2022/07/07 04:35:38;;;;;;;11.65;4.30;;;;;;;16.92;100.00;101574.22;5020175;28;20119;-77
2022/07/07 04:38:03;;;;;;;14.68;5.47;;;;;;;16.99;100.00;101580.09;5053442;28;20116;-77
2022/07/07 04:40:29;;;;;;;11.00;4.85;;;;;;;17.01;100.00;101587.19;5053785;28;20040;-77
2022/07/07 04:42:54;;;;;;;8.45;4.53;;;;;;;16.97;100.00;101574.69;5053610;28;20065;-77
2022/07/07 04:45:20;;;;;;;8.93;4.55;;;;;;;17.03;100.00;101581.53;5020311;28;20028;-76
2022/07/07 04:47:46;;;;;;;8.10;4.85;;;;;;;16.95;100.00;101582.25;5053616;28;20048;-76
2022/07/07 04:50:12;;;;;;;7.50;4.90;;;;;;;17.06;100.00;101579.34;5053771;28;20096;-76
2022/07/07 04:52:38;;;;;;;18.38;5.70;;;;;;;17.14;100.00;101577.75;5054042;28;20063;-77
2022/07/07 04:55:04;;;;;;;7.90;4.72;;;;;;;17.22;100.00;101581.50;5054282;28;20041;-77
2022/07/07 04:57:30;;;;;;;7.80;5.00;;;;;;;17.12;100.00;101579.75;5053090;28;20094;-77
2022/07/07 04:59:56;;;;;;;11.57;5.00;;;;;;;17.11;100.00;101576.13;5054748;28;20040;-76
2022/07/07 05:02:23;;;;;;;11.40;4.30;;;;;;;17.11;100.00;101578.03;5053487;28;20033;-77
2022/07/07 05:04:49;;;;;;;13.63;5.30;;;;;;;17.12;100.00;101585.28;5053340;28;20123;-77
2022/07/07 05:07:15;;;;;;;12.70;5.97;;;;;;;17.04;100.00;101588.81;5054376;28;20448;-77
2022/07/07 05:09:41;;;;;;;15.30;7.03;;;;;;;16.84;100.00;101593.41;5054481;28;20025;-77
2022/07/07 05:12:07;;;;;;;9.30;7.00;;;;;;;16.73;100.00;101594.44;5055046;28;20108;-76
2022/07/07 05:14:33;;;;;;;15.85;7.57;;;;;;;16.57;100.00;101589.47;5036490;28;20134;-76
2022/07/07 05:16:59;;;;;;;14.18;5.93;;;;;;;16.58;100.00;101604.16;5052607;28;20473;-77
2022/07/07 05:19:26;;;;;;;12.05;5.97;;;;;;;16.51;100.00;101613.03;5052836;28;20033;-77
2022/07/07 05:21:52;;;;;;;14.73;7.65;;;;;;;16.54;100.00;101612.75;5052759;28;20028;-77
2022/07/07 05:24:18;;;;;;;11.02;5.55;;;;;;;16.39;100.00;101603.09;5036138;28;20033;-77
2022/07/07 05:26:44;;;;;;;7.72;5.13;;;;;;;16.35;100.00;101627.38;5053871;28;20028;-77
2022/07/07 05:29:10;;;;;;;8.57;3.95;;;;;;;16.29;100.00;101621.53;5053736;28;20078;-77
2022/07/07 05:31:35;;;;;;;11.50;3.83;;;;;;;16.46;100.00;101628.28;5035860;28;20047;-76
2022/07/07 05:34:01;;;;;;;6.18;4.13;;;;;;;16.29;100.00;101624.31;5053491;28;20114;-76
2022/07/07 05:36:26;;;;;;;9.38;4.15;;;;;;;16.41;100.00;101630.59;5036068;28;20043;-76
2022/07/07 05:38:52;;;;;;;5.97;5.00;;;;;;;16.43;100.00;101625.78;5053692;28;20037;-77
2022/07/07 05:41:18;;;;;;;10.50;5.28;;;;;;;16.47;100.00;101632.81;5053709;28;20025;-78
2022/07/07 05:43:44;;;;;;;13.35;4.60;;;;;;;16.60;100.00;101641.72;5053490;28;20444;-77
2022/07/07 05:46:10;;;;;;;10.23;5.30;;;;;;;16.67;100.00;101636.47;5052266;28;20039;-76
2022/07/07 05:48:36;;;;;;;10.23;4.53;;;;;;;16.68;100.00;101643.78;5053437;28;20029;-77
2022/07/07 05:51:02;;;;;;;11.95;4.85;;;;;;;16.72;100.00;101643.34;5035725;28;20480;-77
2022/07/07 05:53:27;;;;;;;15.88;5.63;;;;;;;16.64;100.00;101658.88;5053378;28;20025;-76
2022/07/07 05:55:52;;;;;;;13.77;5.68;;;;;;;16.70;100.00;101656.44;5052146;28;20098;-77
2022/07/07 05:58:18;;;;;;;15.25;5.80;;;;;;;16.90;100.00;101659.25;5051842;28;20068;-77
2022/07/07 06:00:44;;;;;;;11.77;5.18;;;;;;;17.02;100.00;101666.44;5053358;28;20477;-76
2022/07/07 06:03:10;;;;;;;11.82;5.38;;;;;;;16.97;100.00;101654.03;5053898;28;20041;-76
2022/07/07 06:05:36;;;;;;;12.00;5.60;;;;;;;17.08;100.00;101665.84;5052359;28;20052;-76
2022/07/07 06:08:02;;;;;;;17.30;6.55;;;;;;;17.19;100.00;101670.38;5048876;28;20034;-77
2022/07/07 06:10:27;;;;;;;11.00;4.90;;;;;;;17.28;100.00;101668.63;5015807;28;20442;-77
2022/07/07 06:12:53;;;;;;;10.73;5.20;;;;;;;17.26;100.00;101667.91;5033530;28;20048;-77
2022/07/07 06:15:20;;;;;;;10.05;4.20;;;;;;;17.29;100.00;101681.44;5033594;28;20382;-77
2022/07/07 06:17:48;;;;;;;15.55;4.03;;;;;;;17.29;100.00;101684.22;5033023;28;20494;-77
2022/07/07 06:20:13;;;;;;;12.52;3.60;;;;;;;17.04;100.00;101697.59;5016120;28;20397;-76
2022/07/07 06:22:39;;;;;;;13.93;3.97;;;;;;;16.85;100.00;101708.63;5015847;28;20029;-77
2022/07/07 06:25:07;;;;;;;15.45;3.65;;;;;;;16.69;100.00;101703.56;5032696;28;20029;-76
2022/07/07 06:27:33;;;;;;;12.93;2.55;;;;;;;16.51;100.00;101711.66;5033988;28;20076;-78
2022/07/07 06:29:58;;;;;;;9.45;2.08;;;;;;;16.59;100.00;101725.66;5018682;28;20449;-77
2022/07/07 06:32:24;;;;;;;10.43;2.67;;;;;;;16.63;100.00;101710.56;5019593;28;20469;-76
2022/07/07 06:34:50;;;;;;;14.60;2.33;;;;;;;16.68;100.00;101730.38;5037446;28;20037;-76
2022/07/07 06:37:15;;;;;;;12.98;2.05;;;;;;;16.62;100.00;101722.63;5036235;28;20485;-76
2022/07/07 06:39:41;;;;;;;17.58;2.13;;;;;;;16.79;100.00;101715.56;5037172;28;20432;-76
2022/07/07 06:42:06;;;;;;;11.00;2.65;;;;;;;17.29;100.00;101727.63;4987214;28;20040;-77
2022/07/07 06:44:32;;;;;;;20.58;2.15;;;;;;;17.57;100.00;101724.00;5036174;28;20026;-77
2022/07/07 06:46:58;;;;;;;25.80;2.92;;;;;;;17.85;100.00;101729.66;5037441;28;20123;-77
2022/07/07 06:49:25;;;;;;;15.70;3.13;;;;;;;17.64;100.00;101733.47;5035911;28;20481;-77
2022/07/07 06:51:51;;;;;;;13.85;1.80;;;;;;;17.99;100.00;101726.47;5019219;28;20057;-77
2022/07/07 06:54:16;;;;;;;17.35;2.58;;;;;;;17.91;100.00;101728.25;5018952;28;20068;-77
2022/07/07 06:56:42;;;;;;;18.20;1.73;;;;;;;17.81;100.00;101731.00;5035963;28;20037;-76
2022/07/07 06:59:08;;;;;;;13.05;1.90;;;;;;;17.78;100.00;101737.69;5018957;28;20029;-77
2022/07/07 07:01:33;;;;;;;18.17;1.95;;;;;;;18.00;100.00;101733.78;5019042;28;20029;-77
2022/07/07 07:03:59;;;;;;;13.07;1.92;;;;;;;17.89;100.00;101741.34;5036096;28;20083;-77
2022/07/07 07:06:28;;;;;;;13.63;1.92;;;;;;;18.16;100.00;101741.44;5019852;28;20025;-77
2022/07/07 07:08:53;;;;;;;14.95;2.08;;;;;;;17.92;100.00;101749.38;5043702;28;20047;-77
2022/07/07 07:11:18;;;;;;;20.17;2.38;;;;;;;17.83;100.00;101743.66;5019251;28;20017;-77
2022/07/07 07:13:47;;;;;;;13.35;2.30;;;;;;;17.91;100.00;101754.03;5002977;28;20377;-77
2022/07/07 07:16:17;;;;;;;19.08;1.77;;;;;;;17.57;100.00;101751.69;5035849;28;20045;-77
2022/07/07 07:18:43;;;;;;;15.15;2.15;;;;;;;17.63;100.00;101750.25;5035718;28;20028;-77
2022/07/07 07:21:09;;;;;;;28.67;2.15;;;;;;;17.46;100.00;101768.44;5037764;28;20391;-77
2022/07/07 07:23:37;;;;;;;20.45;2.08;;;;;;;17.21;100.00;101769.88;5002928;28;20025;-77
2022/07/07 07:26:06;;;;;;;21.45;1.98;;;;;;;17.26;100.00;101762.00;5035879;28;20045;-77
2022/07/07 07:28:32;;;;;;;18.27;1.90;;;;;;;17.38;100.00;101769.19;5036268;28;20025;-77
2022/07/07 07:30:57;;;;;;;10.27;1.05;;;;;;;17.34;100.00;101775.13;5036723;28;20396;-77
2022/07/07 07:33:23;;;;;;;15.32;1.20;;;;;;;17.50;100.00;101786.53;5035628;28;20131;-77
2022/07/07 07:35:49;;;;;;;9.70;1.10;;;;;;;17.49;100.00;101787.53;5036667;28;20061;-77
2022/07/07 07:38:15;;;;;;;16.25;1.15;;;;;;;17.34;100.00;101794.53;5019947;28;20152;-77
2022/07/07 07:40:40;;;;;;;9.15;1.40;;;;;;;17.17;100.00;101785.03;5037070;28;20041;-77
2022/07/07 07:43:06;;;;;;;16.00;1.48;;;;;;;17.18;100.00;101782.09;5019713;28;20475;-77
2022/07/07 07:45:32;;;;;;;7.18;1.00;;;;;;;17.23;100.00;101798.28;5053050;28;20034;-77
2022/07/07 07:47:59;;;;;;;14.15;1.33;;;;;;;18.61;100.00;101811.09;5037624;28;20104;-78
2022/07/07 07:50:25;;;;;;;7.57;1.52;;;;;;;19.13;100.00;101797.59;5038830;28;20029;-77
2022/07/07 07:52:51;;;;;;;16.65;1.67;;;;;;;19.92;100.00;101801.63;5037579;28;20060;-77
2022/07/07 07:55:20;;;;;;;7.82;1.30;;;;;;;19.85;100.00;101803.28;5036216;28;20040;-77
2022/07/07 07:57:49;;;;;;;13.32;1.48;;;;;;;19.19;100.00;101794.22;5036811;28;20072;-77
2022/07/07 08:00:17;;;;;;;14.75;2.40;;;;;;;19.22;100.00;101806.94;5019912;28;20476;-77
2022/07/07 08:02:43;;;;;;;8.93;1.42;;;;;;;18.90;100.00;101805.47;5038103;28;20036;-77
2022/07/07 08:05:12;;;;;;;16.17;2.08;;;;;;;18.76;100.00;101814.25;5019467;28;20017;-77
2022/07/07 08:07:39;;;;;;;10.18;1.42;;;;;;;18.86;100.00;101824.34;5037447;28;20040;-77
2022/07/07 08:10:08;;;;;;;8.45;1.33;;;;;;;18.25;100.00;101825.63;5055483;28;20044;-76
2022/07/07 08:12:34;;;;;;;11.57;1.15;;;;;;;18.00;100.00;101822.44;5054931;28;20365;-77
2022/07/07 08:15:01;;;;;;;8.15;1.10;;;;;;;18.01;100.00;101823.31;5022420;28;20059;-77
2022/07/07 08:17:26;;;;;;;3.95;0.90;;;;;;;17.75;100.00;101823.84;5055176;28;20544;-77
2022/07/07 08:19:52;;;;;;;5.85;1.30;;;;;;;17.89;100.00;101830.00;5055135;28;20071;-77
2022/07/07 08:22:19;;;;;;;3.70;0.80;;;;;;;18.77;100.00;101816.00;5054609;28;20546;-77
2022/07/07 08:24:44;;;;;;;11.00;1.02;;;;;;;19.74;100.00;101812.72;5057120;28;20036;-77
2022/07/07 08:27:10;;;;;;;8.88;1.10;;;;;;;19.59;100.00;101826.25;5055327;28;20090;-77
2022/07/07 08:29:39;;;;;;;5.70;0.90;;;;;;;19.95;100.00;101825.44;5058513;28;20037;-77
2022/07/07 08:32:14;;;;;;;6.47;1.38;;;;;;;19.45;100.00;101829.59;5039002;28;20037;-77
2022/07/07 08:34:40;;;;;;;12.63;1.42;;;;;;;19.40;100.00;101843.06;5055310;28;20048;-76
2022/07/07 08:37:06;;;;;;;12.73;1.38;;;;;;;19.83;100.00;101828.47;5053929;28;20037;-77
2022/07/07 08:39:32;;;;;;;7.10;1.27;;;;;;;19.68;100.00;101829.13;5058321;28;20040;-77
2022/07/07 08:41:59;;;;;;;4.85;1.20;;;;;;;18.94;100.00;101834.69;5038398;28;20037;-77
2022/07/07 08:44:25;;;;;;;8.30;1.65;;;;;;;18.73;100.00;101837.63;5054735;28;20381;-77
2022/07/07 08:46:51;;;;;;;7.95;1.38;;;;;;;18.46;100.00;101843.97;5055598;28;20059;-77
2022/07/07 08:49:18;;;;;;;15.07;1.20;;;;;;;18.20;100.00;101852.94;5054998;28;20033;-77
2022/07/07 08:51:44;;;;;;;8.77;1.10;;;;;;;18.26;100.00;101860.63;5055186;28;20037;-77
2022/07/07 08:54:12;;;;;;;10.30;1.15;;;;;;;17.75;100.00;101865.41;5055421;28;20491;-77
2022/07/07 08:56:39;;;;;;;11.93;1.20;;;;;;;17.49;100.00;101866.97;5038961;28;20109;-77
2022/07/07 08:59:07;;;;;;;9.68;1.30;;;;;;;17.33;100.00;101864.72;5055340;28;20045;-77
2022/07/07 09:01:33;;;;;;;7.18;1.00;;;;;;;18.38;100.00;101864.13;5055100;28;20025;-77
2022/07/07 09:03:59;;;;;;;9.23;1.10;;;;;;;19.61;100.00;101871.44;5055962;28;20048;-77
2022/07/07 09:06:25;;;;;;;10.00;1.13;;;;;;;20.09;100.00;101862.94;5053864;28;20440;-77
2022/07/07 09:08:52;;;;;;;9.52;1.05;;;;;;;19.90;100.00;101864.81;5037488;28;20036;-77
2022/07/07 09:11:28;;;;;;;8.48;0.90;;;;;;;19.61;100.00;101865.00;5056714;28;20037;-77
2022/07/07 09:14:11;;;;;;;8.23;0.90;;;;;;;19.38;100.00;101873.78;5053876;28;20025;-77
2022/07/07 09:16:37;;;;;;;9.70;1.10;;;;;;;19.51;100.00;101870.63;5055535;28;20029;-77
2022/07/07 09:19:06;;;;;;;3.13;0.52;;;;;;;18.98;100.00;101877.75;5055137;28;20032;-77
2022/07/07 09:21:34;;;;;;;4.95;0.73;;;;;;;18.84;100.00;101890.22;5054096;28;20033;-77
2022/07/07 09:24:02;;;;;;;5.53;0.80;;;;;;;19.30;100.00;101876.47;5038788;28;20032;-77
2022/07/07 09:27:04;;;;;;;7.78;1.00;;;;;;;20.13;100.00;101890.25;5054102;28;20153;-76
2022/07/07 09:29:30;;;;;;;13.20;0.82;;;;;;;19.93;100.00;101883.97;5039303;28;20037;-77
2022/07/07 09:32:04;;;;;;;6.93;1.17;;;;;;;19.67;100.00;101891.31;5021716;28;20078;-77
2022/07/07 09:34:33;;;;;;;9.60;1.40;;;;;;;19.39;100.00;101902.41;5055140;28;20484;-77
2022/07/07 09:39:46;;;;;;;8.95;1.58;;;;;;;19.50;100.00;101906.91;5056329;28;20071;-77
2022/07/07 09:42:24;;;;;;;8.57;1.45;;;;;;;19.24;100.00;101914.03;5054659;28;20037;-77
2022/07/07 09:44:57;;;;;;;11.93;1.85;;;;;;;18.83;100.00;101913.44;5037319;28;20480;-78
2022/07/07 09:47:24;;;;;;;8.90;1.50;;;;;;;18.83;100.00;101918.97;5054483;28;20029;-77
2022/07/07 09:50:13;;;;;;;15.52;1.90;;;;;;;18.60;100.00;101923.97;5054699;28;20032;-77
2022/07/07 09:52:41;;;;;;;11.98;1.88;;;;;;;18.47;100.00;101923.41;5055999;28;20447;-77
2022/07/07 09:55:10;;;;;;;8.73;1.45;;;;;;;18.27;100.00;101933.63;5056661;28;20021;-77
2022/07/07 09:57:36;;;;;;;15.57;1.75;;;;;;;18.20;100.00;101933.34;5055427;28;20059;-77
2022/07/07 10:00:03;;;;;;;8.60;1.65;;;;;;;17.95;100.00;101937.50;5055119;28;20033;-78
2022/07/07 10:02:32;;;;;;;7.10;1.48;;;;;;;17.84;100.00;101941.28;5040019;28;20032;-77
2022/07/07 10:05:00;;;;;;;8.25;1.60;;;;;;;17.98;100.00;101938.09;5058182;28;20032;-77
2022/07/07 10:07:29;;;;;;;7.88;1.17;;;;;;;18.03;100.00;101940.44;5059045;28;20052;-77
2022/07/07 10:09:59;;;;;;;8.75;1.42;;;;;;;18.19;100.00;101935.22;5056728;28;20043;-77
2022/07/07 10:12:28;;;;;;;13.38;1.42;;;;;;;18.27;100.00;101937.25;5057274;28;20415;-77
2022/07/07 10:15:14;;;;;;;16.17;1.98;;;;;;;18.25;100.00;101950.41;5057778;28;20044;-77
2022/07/07 10:17:41;;;;;;;10.25;1.83;;;;;;;18.34;100.00;101954.19;5058517;28;20527;-78
2022/07/07 10:20:08;;;;;;;12.77;1.40;;;;;;;18.43;100.00;101961.66;5057145;28;20087;-77
2022/07/07 10:22:35;;;;;;;7.25;1.20;;;;;;;18.63;100.00;101962.50;5057389;28;20556;-78
2022/07/07 10:25:05;;;;;;;8.68;1.40;;;;;;;18.92;100.00;101961.59;5057649;28;20043;-76
2022/07/07 10:27:30;;;;;;;9.65;1.45;;;;;;;19.92;100.00;101964.75;5060670;28;20061;-76
2022/07/07 10:30:01;;;;;;;11.00;1.40;;;;;;;19.73;100.00;101961.03;5059488;28;20087;-77
2022/07/07 10:32:40;;;;;;;15.20;1.30;;;;;;;19.20;100.00;101970.00;5040492;28;20127;-77
2022/07/07 10:35:13;;;;;;;6.28;1.38;;;;;;;18.82;100.00;101966.28;5058314;28;20033;-77
2022/07/07 10:37:44;;;;;;;8.93;1.10;;;;;;;18.67;100.00;101960.31;5059030;28;20036;-77
2022/07/07 10:40:23;;;;;;;10.55;1.27;;;;;;;18.59;100.00;101976.81;5057909;28;20112;-77
2022/07/07 10:43:30;;;;;;;10.63;1.25;;;;;;;18.41;100.00;101982.22;5040008;28;20116;-77
2022/07/07 10:46:01;;;;;;;12.85;1.13;;;;;;;18.18;100.00;101986.16;5044954;28;20032;-77
2022/07/07 10:48:50;;;;;;;10.65;1.70;;;;;;;17.94;100.00;101983.75;5058450;28;20025;-77
2022/07/07 10:51:21;;;;;;;6.95;1.10;;;;;;;18.13;100.00;101982.91;5056956;28;20025;-77
2022/07/07 10:54:16;;;;;;;9.93;1.00;;;;;;;18.39;100.00;101978.72;5057782;28;20083;-77
2022/07/07 10:56:51;;;;;;;3.92;0.90;;;;;;;18.95;100.00;101996.53;5057382;28;20432;-78
2022/07/07 10:59:20;;;;;;;9.55;0.88;;;;;;;19.22;100.00;102001.31;5057881;28;20033;-77
2022/07/07 11:02:06;;;;;;;7.32;0.98;;;;;;;19.50;100.00;102002.22;5058525;28;20055;-77
2022/07/07 11:04:41;;;;;;;8.88;0.75;;;;;;;19.49;100.00;102010.72;5039262;28;20037;-77
2022/07/07 11:07:11;;;;;;;13.23;1.05;;;;;;;19.57;100.00;102008.91;5056551;28;20423;-77
2022/07/07 11:09:59;;;;;;;8.32;0.88;;;;;;;19.36;100.00;102014.69;5056605;28;20388;-77
2022/07/07 11:12:41;;;;;;;5.00;1.20;;;;;;;19.14;100.00;102009.50;5039907;28;20373;-77
2022/07/07 11:15:20;;;;;;;2.47;0.80;;;;;;;19.03;100.00;102007.75;5056056;28;20427;-77